Searcy, AR

12:36 AM CDT on July 30, 2016 (GMT -0500)
Crosby | | Change Station

Elev 269 ft 35.28 °N, 91.83 °W | Updated 7 minutes ago

Partly Cloudy
Partly Cloudy
71.1 °F
Feels Like 71.1 °F
N
0.0
Wind Variable Wind from NNW

Today
High -- | Low -- °F
--% Chance of Precip.
Yesterday
High -- | Low -- °F
Precip. -- in
Pressure 30.11 in
Visibility 6.0 miles
Clouds Few 6000 ft
Dew Point 70 °F
Humidity 95%
Rainfall 0.00 in
Snow Depth Not available.
6:15 AM 8:11 PM
Waning Crescent, 16% visible
METAR KSRC 300456Z AUTO 00000KT 6SM BR FEW060 22/22 A3010 RMK AO2 SLP195 T02220222 403390217
Pressure 30.11 in
Visibility 6.0 miles
Clouds Few 6000 ft
Dew Point 70 °F
Humidity 95%
Rainfall 0.00 in
Snow Depth Not available.
6:15 AM 8:11 PM
Waning Crescent, 16% visible
METAR KSRC 300456Z AUTO 00000KT 6SM BR FEW060 22/22 A3010 RMK AO2 SLP195 T02220222 403390217

10-Day Weather Forecast

Almanac

Astronomy

Jul. 30, 2016 Rise Set
Actual Time
Civil Twilight
Nautical Twilight
Astronomical Twilight
Moon
Length of Visible Light
Length of Day
Tomorrow will be .
, % of the Moon is Illuminated

Today's Extremes

State Highs State Lows

Community

WunderPhotos

Upload Photos

1,928,506 photos uploaded!

WunderBlog® & News

Nearby

Air Quality

  Air Quality AQ Index Pollutant
Not available.

Snow Depth

Station Depth Elevation

Earthquake Activity

City Distance Mag. Time & Date
Minimum magnitude displayed is 2.5.

Coastal Water Temperatures

Place Temperature

Stations

Nearby Weather Stations

Station Location Temp. Windchill Dew Point Humidity Wind Precip. Elev Updated Type
                   

Watches & Warnings

There are currently no watches in effect.